createdAt,value
2022-08-14T00:04:44.869Z,69.10
2022-08-14T00:09:55.521Z,69.10
2022-08-14T00:14:55.424Z,68.60
2022-08-14T00:19:55.063Z,69.20
2022-08-14T00:24:53.318Z,69.20
2022-08-14T00:29:51.567Z,69.00
2022-08-14T00:34:49.845Z,68.90
2022-08-14T00:39:51.112Z,68.60
2022-08-14T00:44:50.055Z,68.70
2022-08-14T00:49:56.282Z,68.60
2022-08-14T00:54:58.274Z,68.70
2022-08-14T00:59:57.483Z,68.10
2022-08-14T01:04:58.316Z,68.50
2022-08-14T01:10:01.755Z,68.60
2022-08-14T01:15:02.720Z,68.70
2022-08-14T01:20:27.698Z,68.40
2022-08-14T01:25:29.467Z,68.60
2022-08-14T01:30:28.612Z,69.20
2022-08-14T01:36:03.309Z,69.30
2022-08-14T01:40:48.979Z,69.30
2022-08-14T01:46:06.196Z,69.30
2022-08-14T01:51:19.455Z,69.50
2022-08-14T01:56:20.314Z,69.40
2022-08-14T02:01:19.694Z,69.50
2022-08-14T02:06:32.216Z,69.50
2022-08-14T02:11:34.205Z,69.80
2022-08-14T02:16:39.303Z,69.80
2022-08-14T02:21:43.169Z,70.00
2022-08-14T02:26:58.298Z,70.10
2022-08-14T02:32:10.513Z,70.30
2022-08-14T02:37:47.473Z,70.40
2022-08-14T02:42:55.059Z,70.50
2022-08-14T02:47:57.606Z,70.80
2022-08-14T02:53:03.155Z,70.80
2022-08-14T02:58:05.844Z,71.00
2022-08-14T03:03:07.574Z,71.40
2022-08-14T03:14:39.673Z,71.40
2022-08-14T03:19:38.050Z,72.10
2022-08-14T03:24:37.522Z,72.20
2022-08-14T03:29:40.839Z,72.10
2022-08-14T03:34:48.014Z,72.10
2022-08-14T03:39:51.127Z,72.20
2022-08-14T03:45:18.774Z,72.20
2022-08-14T03:50:11.084Z,72.30
2022-08-14T03:55:12.339Z,72.30
2022-08-14T04:00:42.949Z,72.50
2022-08-14T04:05:42.874Z,72.60
2022-08-14T04:10:41.794Z,72.60
2022-08-14T04:16:01.259Z,73.00
2022-08-14T04:21:01.077Z,73.20
2022-08-14T04:25:59.311Z,73.50
2022-08-14T04:30:59.546Z,73.20
2022-08-14T04:35:57.867Z,73.80
2022-08-14T04:41:13.429Z,73.50
2022-08-14T04:46:56.110Z,73.60
2022-08-14T04:51:37.521Z,74.20
2022-08-14T04:56:45.466Z,73.90
2022-08-14T05:01:49.138Z,74.00
2022-08-14T05:06:53.697Z,74.40
2022-08-14T05:11:53.875Z,74.20
2022-08-14T05:16:53.599Z,74.20
2022-08-14T05:22:00.260Z,74.40
2022-08-14T05:27:11.741Z,75.20
2022-08-14T05:32:11.336Z,74.80
2022-08-14T05:37:09.555Z,74.30
2022-08-14T05:42:21.312Z,75.50
2022-08-14T05:47:22.102Z,75.40
2022-08-14T05:52:38.572Z,76.60
2022-08-14T05:57:47.907Z,76.40
2022-08-14T06:02:47.501Z,77.60
2022-08-14T06:07:45.708Z,78.40
2022-08-14T06:12:56.543Z,77.50
2022-08-14T06:17:58.537Z,76.80
2022-08-14T06:22:57.783Z,76.90
2022-08-14T06:27:58.176Z,76.30
2022-08-14T06:33:06.777Z,75.20
2022-08-14T06:38:05.491Z,76.30
2022-08-14T06:43:05.398Z,76.30
2022-08-14T06:48:14.311Z,75.50
2022-08-14T06:53:16.482Z,74.80
2022-08-14T06:58:28.334Z,75.30
2022-08-14T07:03:46.166Z,74.40
2022-08-14T07:09:44.293Z,73.90
2022-08-14T07:14:49.058Z,74.00
2022-08-14T07:19:48.650Z,75.10
2022-08-14T07:24:49.478Z,75.10
2022-08-14T07:29:47.897Z,74.80
2022-08-14T07:34:46.162Z,72.90
2022-08-14T07:39:46.569Z,72.90
2022-08-14T07:44:48.967Z,72.70
2022-08-14T07:50:01.791Z,71.60
2022-08-14T07:55:02.239Z,71.10
2022-08-14T08:00:00.634Z,70.60
2022-08-14T08:05:00.559Z,70.70
2022-08-14T08:10:01.175Z,70.70
2022-08-14T08:15:07.183Z,71.10
2022-08-14T08:20:06.993Z,70.40
2022-08-14T08:25:13.423Z,69.50
2022-08-14T08:30:15.029Z,69.20
2022-08-14T08:35:21.159Z,68.70
2022-08-14T08:40:31.221Z,67.90
2022-08-14T08:45:31.930Z,69.60
2022-08-14T08:55:35.379Z,66.80
2022-08-14T09:00:37.286Z,66.60
2022-08-14T09:05:51.611Z,66.80
2022-08-14T09:10:56.302Z,65.70
2022-08-14T09:15:56.888Z,65.40
2022-08-14T09:20:58.788Z,64.80
2022-08-14T09:25:59.794Z,64.10
2022-08-14T09:31:07.379Z,63.70
2022-08-14T09:36:46.533Z,64.20
2022-08-14T09:42:21.139Z,63.00
2022-08-14T09:47:16.941Z,64.00
2022-08-14T09:52:32.893Z,63.20
2022-08-14T09:57:32.406Z,62.80
2022-08-14T10:02:34.468Z,63.00
2022-08-14T10:07:35.995Z,62.60
2022-08-14T10:12:45.371Z,63.20
2022-08-14T10:17:46.433Z,63.40
2022-08-14T10:23:12.950Z,63.60
2022-08-14T10:28:03.884Z,63.50
2022-08-14T10:33:03.527Z,63.00
2022-08-14T10:38:07.282Z,62.70
2022-08-14T10:43:17.056Z,63.00
2022-08-14T10:48:34.658Z,62.70
2022-08-14T10:53:40.093Z,62.90
2022-08-14T10:58:38.733Z,62.80
2022-08-14T11:03:56.244Z,61.70
2022-08-14T11:08:55.843Z,61.70
2022-08-14T11:13:57.623Z,60.80
2022-08-14T11:18:59.677Z,60.90
2022-08-14T11:23:59.189Z,61.80
2022-08-14T11:29:01.313Z,61.40
2022-08-14T11:34:02.388Z,62.30
2022-08-14T11:39:02.341Z,61.90
2022-08-14T11:44:13.133Z,62.10
2022-08-14T11:49:34.973Z,61.00
2022-08-14T11:54:35.492Z,58.80
2022-08-14T11:59:34.320Z,58.60
2022-08-14T12:04:34.910Z,57.40
2022-08-14T12:09:36.432Z,57.30
2022-08-14T12:14:39.613Z,57.00
2022-08-14T12:19:51.263Z,56.40
2022-08-14T12:24:52.414Z,55.80
2022-08-14T12:29:54.352Z,55.20
2022-08-14T12:34:56.722Z,56.20
2022-08-14T12:39:55.700Z,56.10
2022-08-14T12:44:58.756Z,56.40
2022-08-14T12:49:58.833Z,54.80
2022-08-14T12:55:06.454Z,53.60
2022-08-14T13:00:22.540Z,54.30
2022-08-14T13:05:25.257Z,53.70
2022-08-14T13:10:46.923Z,53.90
2022-08-14T13:15:46.448Z,55.00
2022-08-14T13:20:51.210Z,54.60
2022-08-14T13:25:58.117Z,55.30
2022-08-14T13:30:58.044Z,55.30
2022-08-14T13:35:58.507Z,55.20
2022-08-14T13:40:57.241Z,54.60
2022-08-14T13:46:00.278Z,55.80
2022-08-14T13:51:02.876Z,55.60
2022-08-14T13:56:02.561Z,54.10
2022-08-14T14:01:01.224Z,54.40
2022-08-14T14:06:03.458Z,54.20
2022-08-14T14:11:01.872Z,54.10
2022-08-14T14:16:03.801Z,53.70
2022-08-14T14:21:06.525Z,53.40
2022-08-14T14:26:13.973Z,53.20
2022-08-14T14:31:13.512Z,53.60
2022-08-14T14:36:14.648Z,52.00
2022-08-14T14:41:17.418Z,53.10
2022-08-14T14:46:17.069Z,52.60
2022-08-14T14:51:17.896Z,51.80
2022-08-14T14:56:50.840Z,51.30
2022-08-14T15:01:36.983Z,51.90
2022-08-14T15:06:39.228Z,51.60
2022-08-14T15:11:47.080Z,52.30
2022-08-14T15:16:45.506Z,52.70
2022-08-14T15:21:46.877Z,52.40
2022-08-14T15:26:46.714Z,52.40
2022-08-14T15:31:44.958Z,52.40
2022-08-14T15:36:45.476Z,52.70
2022-08-14T15:41:45.550Z,52.20
2022-08-14T15:46:45.554Z,51.80
2022-08-14T15:51:43.904Z,52.70
2022-08-14T15:56:43.738Z,52.90
2022-08-14T16:01:54.765Z,52.60
2022-08-14T16:06:55.603Z,53.00
2022-08-14T16:11:54.210Z,53.90
2022-08-14T16:17:00.443Z,53.10
2022-08-14T16:22:58.723Z,53.60
2022-08-14T16:27:37.858Z,53.60
2022-08-14T16:32:55.113Z,54.20
2022-08-14T16:37:55.516Z,53.80
2022-08-14T16:43:04.802Z,53.80
2022-08-14T16:48:57.155Z,53.40
2022-08-14T16:53:31.692Z,53.70
2022-08-14T16:58:34.548Z,54.20
2022-08-14T17:03:42.199Z,53.80
2022-08-14T17:08:46.006Z,53.80
2022-08-14T17:13:57.708Z,54.20
2022-08-14T17:19:03.553Z,54.20
2022-08-14T17:24:58.010Z,54.30
2022-08-14T17:29:29.408Z,54.60
2022-08-14T17:34:46.375Z,54.80
2022-08-14T17:39:59.961Z,55.30
2022-08-14T17:45:02.113Z,55.20
2022-08-14T17:50:04.025Z,55.50
2022-08-14T17:56:01.456Z,55.60
2022-08-14T18:00:43.522Z,55.80
2022-08-14T18:06:07.040Z,55.80
2022-08-14T18:11:07.143Z,55.70
2022-08-14T18:16:08.662Z,56.00
2022-08-14T18:21:40.673Z,56.30
2022-08-14T18:26:40.740Z,56.20
2022-08-14T18:31:42.018Z,56.60
2022-08-14T18:36:54.323Z,56.70
2022-08-14T18:41:57.371Z,56.90
2022-08-14T18:47:23.729Z,57.00
2022-08-14T18:52:43.957Z,57.10
2022-08-14T18:58:26.648Z,57.10
2022-08-14T19:04:04.037Z,57.20
2022-08-14T19:09:04.504Z,57.10
2022-08-14T19:14:04.779Z,57.20
2022-08-14T19:19:06.725Z,57.40
2022-08-14T19:24:27.797Z,57.80
2022-08-14T19:29:36.277Z,57.80
2022-08-14T19:34:52.085Z,57.80
2022-08-14T19:39:54.407Z,58.10
2022-08-14T19:44:54.092Z,58.20
2022-08-14T19:50:24.677Z,58.30
2022-08-14T19:55:17.871Z,58.30
2022-08-14T20:00:28.438Z,58.20
2022-08-14T20:05:27.943Z,58.30
2022-08-14T20:11:06.405Z,58.40
2022-08-14T20:15:56.217Z,58.50
2022-08-14T20:20:55.252Z,58.60
2022-08-14T20:25:57.223Z,58.70
2022-08-14T20:31:14.596Z,59.40
2022-08-14T20:36:15.025Z,59.40
2022-08-14T20:41:26.254Z,59.10
2022-08-14T20:46:29.781Z,59.30
2022-08-14T20:51:36.749Z,59.20
2022-08-14T20:56:40.490Z,59.70
2022-08-14T21:01:41.001Z,59.60
2022-08-14T21:07:23.842Z,59.60
2022-08-14T21:12:03.929Z,59.80
2022-08-14T21:17:03.496Z,60.00
2022-08-14T21:22:02.470Z,60.30
2022-08-14T21:27:12.453Z,60.40
2022-08-14T21:32:20.547Z,60.40
2022-08-14T21:37:19.390Z,61.00
2022-08-14T21:42:18.028Z,61.10
2022-08-14T21:47:17.577Z,61.60
2022-08-14T21:52:51.959Z,62.20
2022-08-14T21:58:51.180Z,62.80
2022-08-14T22:03:06.316Z,63.30
2022-08-14T22:08:12.394Z,63.60
2022-08-14T22:13:11.658Z,64.00
2022-08-14T22:18:20.296Z,64.50
2022-08-14T22:23:19.423Z,65.10
2022-08-14T22:28:27.183Z,65.30
2022-08-14T22:33:32.935Z,65.90
2022-08-14T22:38:37.782Z,66.00
2022-08-14T22:43:37.649Z,65.90
2022-08-14T22:48:38.900Z,66.30
2022-08-14T22:53:37.287Z,66.50
2022-08-14T22:58:38.243Z,66.50
2022-08-14T23:03:39.943Z,66.70
2022-08-14T23:09:01.604Z,66.80
2022-08-14T23:14:00.915Z,66.90
2022-08-14T23:19:02.954Z,67.20
2022-08-14T23:24:03.003Z,67.30
2022-08-14T23:29:01.785Z,67.40
2022-08-14T23:34:00.087Z,67.50
2022-08-14T23:39:00.264Z,67.60
2022-08-14T23:43:58.477Z,68.20
2022-08-14T23:48:57.648Z,68.20
2022-08-14T23:53:56.276Z,68.30
2022-08-14T23:58:56.283Z,68.30
